createdAt,value
2019-01-31T00:01:52.442Z,66.41
2019-01-31T00:04:43.111Z,66.38
2019-01-31T00:07:33.647Z,66.12
2019-01-31T00:10:24.213Z,66.05
2019-01-31T00:13:14.746Z,66.21
2019-01-31T00:16:07.211Z,66.22
2019-01-31T00:18:59.685Z,66.14
2019-01-31T00:21:52.149Z,66.22
2019-01-31T00:24:44.610Z,66.19
2019-01-31T00:27:37.070Z,66.24
2019-01-31T00:30:29.546Z,66.33
2019-01-31T00:33:21.995Z,66.31
2019-01-31T00:36:14.426Z,66.15
2019-01-31T00:39:06.906Z,65.96
2019-01-31T00:41:57.573Z,65.67
2019-01-31T00:44:50.000Z,65.45
2019-01-31T00:47:42.606Z,65.39
2019-01-31T00:50:35.074Z,65.45
2019-01-31T00:53:27.535Z,65.28
2019-01-31T00:56:34.349Z,65.34
2019-01-31T00:59:14.596Z,65.21
2019-01-31T01:02:07.367Z,65.42
2019-01-31T01:04:57.925Z,65.62
2019-01-31T01:07:50.364Z,65.68
2019-01-31T01:10:42.903Z,65.76
2019-01-31T01:13:35.364Z,65.61
2019-01-31T01:16:27.835Z,65.82
2019-01-31T01:19:20.303Z,66.02
2019-01-31T01:22:12.780Z,65.81
2019-01-31T01:25:03.336Z,66.13
2019-01-31T01:27:55.813Z,66.26
2019-01-31T01:30:48.244Z,66.76
2019-01-31T02:26:42.917Z,67.33
2019-01-31T02:29:33.465Z,67.48
2019-01-31T02:32:25.912Z,67.36
2019-01-31T02:35:16.471Z,67.26
2019-01-31T02:38:08.917Z,67.30
2019-01-31T02:41:01.388Z,67.42
2019-01-31T02:43:53.834Z,67.19
2019-01-31T02:46:46.295Z,67.05
2019-01-31T02:49:38.741Z,67.02
2019-01-31T02:52:29.292Z,66.88
2019-01-31T02:55:19.839Z,66.67
2019-01-31T02:58:10.390Z,66.96
2019-01-31T03:01:02.845Z,67.37
2019-01-31T03:03:53.379Z,67.08
2019-01-31T03:09:54.286Z,66.79
2019-01-31T03:12:34.762Z,66.12
2019-01-31T03:15:27.226Z,66.50
2019-01-31T03:18:19.696Z,66.75
2019-01-31T03:21:12.120Z,66.58
2019-01-31T03:24:04.589Z,66.93
2019-01-31T03:26:57.051Z,66.57
2019-01-31T03:29:49.509Z,66.60
2019-01-31T03:32:40.066Z,66.49
2019-01-31T03:35:30.610Z,66.94
2019-01-31T03:38:21.139Z,67.17
2019-01-31T03:41:11.717Z,67.03
2019-01-31T03:44:04.202Z,67.04
2019-01-31T03:46:54.722Z,67.53
2019-01-31T03:49:47.196Z,67.75
2019-01-31T03:52:37.745Z,67.51
2019-01-31T03:55:28.310Z,67.62
2019-01-31T03:58:20.742Z,67.51
2019-01-31T04:01:11.295Z,67.70
2019-01-31T04:04:01.833Z,68.11
2019-01-31T04:06:54.287Z,68.14
2019-01-31T04:09:46.752Z,67.94
2019-01-31T04:11:57.553Z,67.87
2019-01-31T04:14:08.453Z,68.33
2019-01-31T04:16:19.288Z,68.21
2019-01-31T04:18:30.103Z,68.19
2019-01-31T04:20:40.908Z,68.17
2019-01-31T04:22:51.821Z,68.00
2019-01-31T04:25:44.274Z,67.99
2019-01-31T04:27:55.100Z,68.05
2019-01-31T04:30:47.570Z,68.13
2019-01-31T04:32:58.389Z,68.22
2019-01-31T04:35:09.280Z,68.08
2019-01-31T04:37:20.149Z,67.88
2019-01-31T04:39:30.957Z,67.88
2019-01-31T04:41:41.787Z,68.10
2019-01-31T04:43:52.576Z,68.23
2019-01-31T04:46:03.379Z,68.26
2019-01-31T04:48:14.186Z,68.24
2019-01-31T04:50:24.984Z,68.19
2019-01-31T04:52:35.814Z,68.34
2019-01-31T04:54:46.604Z,68.21
2019-01-31T04:56:57.421Z,68.30
2019-01-31T04:59:08.213Z,68.26
2019-01-31T05:01:19.018Z,68.43
2019-01-31T05:03:29.846Z,68.58
2019-01-31T05:05:40.736Z,68.62
2019-01-31T05:07:51.561Z,68.82
2019-01-31T05:10:44.022Z,68.84
2019-01-31T05:12:54.845Z,68.60
2019-01-31T05:15:47.309Z,68.38
2019-01-31T05:17:58.130Z,68.57
2019-01-31T05:20:50.574Z,68.84
2019-01-31T05:23:01.413Z,68.92
2019-01-31T05:25:53.865Z,69.00
2019-01-31T05:28:04.725Z,68.96
2019-01-31T05:30:15.713Z,69.13
2019-01-31T05:32:26.612Z,69.25
2019-01-31T05:34:37.420Z,69.18
2019-01-31T05:36:48.216Z,69.06
2019-01-31T05:38:59.036Z,69.02
2019-01-31T05:41:09.856Z,68.86
2019-01-31T05:43:20.663Z,68.80
2019-01-31T05:45:31.486Z,68.74
2019-01-31T05:47:42.313Z,68.64
2019-01-31T05:49:53.147Z,68.38
2019-01-31T05:52:04.006Z,68.37
2019-01-31T05:54:14.830Z,68.54
2019-01-31T05:56:25.621Z,68.65
2019-01-31T05:58:36.405Z,68.60
2019-01-31T06:00:47.328Z,68.64
2019-01-31T06:02:58.112Z,68.57
2019-01-31T06:05:09.245Z,68.78
2019-01-31T06:07:20.049Z,68.96
2019-01-31T06:09:30.847Z,69.07
2019-01-31T06:11:41.679Z,68.67
2019-01-31T06:13:52.478Z,68.60
2019-01-31T06:16:06.661Z,68.70
2019-01-31T06:18:16.204Z,68.48
2019-01-31T06:20:27.138Z,68.33
2019-01-31T06:22:37.956Z,68.37
2019-01-31T06:24:48.748Z,68.34
2019-01-31T06:26:59.584Z,67.66
2019-01-31T06:29:10.476Z,67.71
2019-01-31T06:31:21.318Z,67.66
2019-01-31T06:33:32.124Z,67.91
2019-01-31T06:35:42.927Z,67.86
2019-01-31T06:37:53.729Z,68.09
2019-01-31T06:40:46.198Z,68.43
2019-01-31T06:42:56.998Z,68.60
2019-01-31T06:45:49.498Z,68.78
2019-01-31T06:48:00.328Z,68.83
2019-01-31T06:50:52.773Z,68.42
2019-01-31T06:53:03.731Z,68.33
2019-01-31T06:55:56.272Z,67.59
2019-01-31T06:58:07.109Z,67.11
2019-01-31T07:00:59.556Z,67.55
2019-01-31T07:03:10.385Z,73.22
2019-01-31T07:05:21.191Z,78.53
2019-01-31T07:07:32.020Z,68.02
2019-01-31T07:09:42.928Z,65.56
2019-01-31T07:11:53.725Z,65.37
2019-01-31T07:14:04.560Z,65.31
2019-01-31T07:16:15.350Z,65.49
2019-01-31T07:18:26.207Z,65.03
2019-01-31T07:20:37.031Z,65.10
2019-01-31T07:22:47.869Z,65.32
2019-01-31T07:24:58.674Z,65.06
2019-01-31T07:27:09.498Z,64.43
2019-01-31T07:29:20.306Z,64.19
2019-01-31T07:31:31.224Z,63.99
2019-01-31T07:33:42.049Z,63.63
2019-01-31T07:35:52.829Z,63.54
2019-01-31T07:38:03.615Z,63.35
2019-01-31T07:40:56.103Z,63.38
2019-01-31T07:43:06.891Z,63.44
2019-01-31T07:45:37.588Z,63.14
2019-01-31T07:47:48.406Z,62.69
2019-01-31T07:49:59.223Z,62.78
2019-01-31T07:52:10.027Z,62.44
2019-01-31T07:54:20.836Z,62.58
2019-01-31T07:56:31.649Z,62.31
2019-01-31T07:58:42.471Z,62.48
2019-01-31T08:00:53.301Z,63.07
2019-01-31T08:03:04.192Z,62.88
2019-01-31T08:05:56.674Z,62.66
2019-01-31T08:08:07.576Z,62.62
2019-01-31T08:10:39.382Z,62.65
2019-01-31T08:12:50.193Z,62.78
2019-01-31T08:15:00.992Z,62.72
2019-01-31T08:17:11.825Z,62.75
2019-01-31T08:19:22.663Z,62.43
2019-01-31T08:21:33.481Z,62.50
2019-01-31T08:23:44.262Z,62.48
2019-01-31T08:25:55.196Z,62.73
2019-01-31T08:28:47.637Z,62.79
2019-01-31T08:30:58.470Z,62.51
2019-01-31T08:33:09.465Z,62.38
2019-01-31T08:35:20.386Z,62.64
2019-01-31T08:37:31.197Z,62.87
2019-01-31T08:39:41.975Z,63.58
2019-01-31T08:42:03.227Z,65.00
2019-01-31T08:44:05.600Z,65.91
2019-01-31T08:46:16.440Z,66.92
2019-01-31T08:48:27.199Z,67.63
2019-01-31T08:50:38.122Z,68.38
2019-01-31T08:52:48.953Z,69.46
2019-01-31T08:54:59.812Z,70.30
2019-01-31T08:57:12.101Z,71.25
2019-01-31T08:59:22.993Z,73.30
2019-01-31T09:01:54.519Z,74.50
2019-01-31T09:04:05.427Z,74.50
2019-01-31T09:06:16.255Z,75.73
2019-01-31T09:08:27.046Z,75.36
2019-01-31T09:11:19.536Z,75.63
2019-01-31T09:13:30.328Z,75.91
2019-01-31T09:15:41.120Z,76.45
2019-01-31T09:17:52.031Z,77.12
2019-01-31T09:20:44.487Z,77.31
2019-01-31T09:23:35.116Z,77.64
2019-01-31T09:26:25.638Z,77.99
2019-01-31T09:29:16.226Z,77.96
2019-01-31T09:32:08.652Z,78.47
2019-01-31T09:35:01.126Z,79.04
2019-01-31T09:37:53.601Z,79.33
2019-01-31T09:40:46.044Z,79.60
2019-01-31T09:43:36.704Z,80.67
2019-01-31T09:46:27.263Z,81.08
2019-01-31T09:49:17.817Z,81.84
2019-01-31T09:52:08.353Z,82.08
2019-01-31T09:55:00.837Z,82.35
2019-01-31T09:57:53.302Z,81.85
2019-01-31T10:00:45.751Z,81.40
2019-01-31T10:03:38.201Z,81.34
2019-01-31T10:06:28.813Z,81.44
2019-01-31T10:09:19.371Z,81.39
2019-01-31T10:12:11.912Z,81.04
2019-01-31T10:15:04.419Z,80.29
2019-01-31T10:17:56.850Z,80.18
2019-01-31T10:20:47.465Z,80.35
2019-01-31T10:23:39.977Z,79.93
2019-01-31T10:26:30.620Z,80.10
2019-01-31T10:29:23.056Z,79.57
2019-01-31T10:32:15.518Z,78.91
2019-01-31T10:35:06.061Z,78.01
2019-01-31T10:37:58.525Z,77.24
2019-01-31T10:40:51.015Z,74.97
2019-01-31T10:43:41.551Z,74.56
2019-01-31T10:46:34.017Z,73.38
2019-01-31T10:49:26.470Z,73.29
2019-01-31T10:52:18.923Z,72.78
2019-01-31T10:55:11.370Z,72.52
2019-01-31T10:58:01.940Z,71.50
2019-01-31T11:00:52.639Z,70.69
2019-01-31T11:03:45.114Z,70.93
2019-01-31T11:06:37.585Z,72.00
2019-01-31T11:09:28.138Z,72.43
2019-01-31T11:12:20.616Z,72.54
2019-01-31T11:15:11.167Z,73.48
2019-01-31T11:18:01.718Z,71.85
2019-01-31T11:20:54.182Z,70.99
2019-01-31T11:23:44.742Z,67.11
2019-01-31T11:26:35.304Z,65.85
2019-01-31T11:29:27.767Z,66.58
2019-01-31T11:32:18.318Z,66.40
2019-01-31T11:35:10.782Z,66.67
2019-01-31T11:38:03.245Z,67.51
2019-01-31T11:40:53.789Z,68.11
2019-01-31T11:43:44.354Z,68.69
2019-01-31T11:46:36.856Z,68.34
2019-01-31T11:49:29.319Z,68.71
2019-01-31T11:52:21.772Z,69.27
2019-01-31T11:55:12.375Z,69.55
2019-01-31T11:58:03.369Z,68.75
2019-01-31T12:00:55.823Z,67.91
2019-01-31T12:03:06.628Z,68.04
2019-01-31T12:05:17.545Z,67.92
2019-01-31T12:07:28.398Z,68.03
2019-01-31T12:09:39.272Z,67.56
2019-01-31T12:11:50.098Z,67.44
2019-01-31T12:14:01.016Z,67.23
2019-01-31T12:16:11.907Z,66.80
2019-01-31T12:18:22.812Z,66.62
2019-01-31T12:20:33.631Z,66.56
2019-01-31T12:22:44.523Z,66.36
2019-01-31T12:24:55.358Z,65.92
2019-01-31T12:27:06.259Z,65.29
2019-01-31T12:29:17.331Z,64.45
2019-01-31T12:31:28.137Z,64.11
2019-01-31T12:33:39.051Z,63.68
2019-01-31T12:35:49.985Z,63.72
2019-01-31T12:38:00.831Z,63.52
2019-01-31T12:40:33.403Z,63.00
2019-01-31T12:43:34.750Z,62.33
2019-01-31T12:45:38.600Z,62.46
2019-01-31T12:47:49.394Z,62.23
2019-01-31T12:50:00.208Z,61.28
2019-01-31T12:52:11.019Z,60.90
2019-01-31T12:54:21.976Z,61.15
2019-01-31T12:56:32.780Z,61.12
2019-01-31T12:58:43.590Z,61.48
2019-01-31T13:01:39.050Z,61.10
2019-01-31T13:03:51.793Z,59.84
2019-01-31T13:06:44.251Z,59.80
2019-01-31T13:08:55.082Z,59.34
2019-01-31T13:11:47.578Z,59.34
2019-01-31T13:13:58.533Z,58.17
2019-01-31T13:16:09.429Z,58.18
2019-01-31T13:18:20.520Z,58.97
2019-01-31T13:20:31.581Z,58.65
2019-01-31T13:22:42.408Z,58.43
2019-01-31T13:24:53.324Z,58.75
2019-01-31T13:29:36.715Z,58.79
2019-01-31T13:31:47.535Z,59.13
2019-01-31T13:33:58.322Z,59.54
2019-01-31T13:36:50.756Z,58.84
2019-01-31T13:39:01.619Z,58.65
2019-01-31T13:41:12.419Z,58.90
2019-01-31T13:43:23.524Z,58.42
2019-01-31T13:45:34.630Z,59.15
2019-01-31T13:47:45.579Z,58.84
2019-01-31T13:49:56.479Z,58.71
2019-01-31T13:52:07.421Z,57.24
2019-01-31T13:54:18.352Z,57.69
2019-01-31T13:56:29.165Z,57.22
2019-01-31T13:58:40.066Z,57.58
2019-01-31T14:00:50.876Z,57.84
2019-01-31T14:03:01.695Z,58.56
2019-01-31T14:05:54.202Z,58.31
2019-01-31T14:08:46.683Z,58.13
2019-01-31T14:10:57.480Z,57.48
2019-01-31T14:13:11.279Z,57.66
2019-01-31T14:15:40.983Z,57.96
2019-01-31T14:17:51.793Z,58.17
2019-01-31T14:20:44.262Z,58.67
2019-01-31T14:22:55.402Z,58.72
2019-01-31T14:25:47.863Z,57.85
2019-01-31T14:27:58.712Z,57.51
2019-01-31T14:30:49.262Z,57.12
2019-01-31T14:36:14.087Z,55.59
2019-01-31T14:38:25.063Z,56.48
2019-01-31T14:40:35.935Z,56.00
2019-01-31T14:42:46.728Z,55.44
2019-01-31T14:44:57.523Z,55.36
2019-01-31T14:47:08.443Z,55.50
2019-01-31T14:49:19.262Z,55.17
2019-01-31T14:51:30.195Z,55.04
2019-01-31T14:53:41.154Z,54.81
2019-01-31T14:55:51.980Z,54.98
2019-01-31T14:58:44.423Z,54.94
2019-01-31T15:00:55.256Z,54.97
2019-01-31T15:03:06.074Z,54.82
2019-01-31T15:05:16.990Z,55.27
2019-01-31T15:07:27.823Z,55.60
2019-01-31T15:09:38.642Z,55.43
2019-01-31T15:11:49.566Z,55.63
2019-01-31T15:14:00.390Z,55.90
2019-01-31T15:16:11.215Z,56.22
2019-01-31T15:18:22.070Z,56.46
2019-01-31T15:21:14.520Z,56.57
2019-01-31T15:23:25.458Z,56.80
2019-01-31T15:25:36.261Z,57.16
2019-01-31T15:27:47.340Z,57.82
2019-01-31T15:29:58.168Z,58.04
2019-01-31T15:32:08.981Z,58.08
2019-01-31T15:37:12.127Z,58.33
2019-01-31T15:39:22.930Z,58.25
2019-01-31T15:41:33.753Z,58.13
2019-01-31T15:43:44.696Z,58.36
2019-01-31T15:45:55.506Z,58.75
2019-01-31T15:48:48.007Z,59.06
2019-01-31T15:50:59.006Z,59.13
2019-01-31T15:53:09.939Z,60.20
2019-01-31T15:55:40.720Z,60.80
2019-01-31T15:57:51.752Z,61.41
2019-01-31T16:00:44.176Z,62.08
2019-01-31T16:02:55.018Z,62.39
2019-01-31T16:05:05.818Z,62.66
2019-01-31T16:07:16.729Z,63.12
2019-01-31T16:09:27.690Z,63.45
2019-01-31T16:11:38.580Z,63.78
2019-01-31T16:13:49.340Z,64.27
2019-01-31T16:16:00.320Z,64.57
2019-01-31T16:18:52.769Z,64.74
2019-01-31T16:21:03.755Z,65.18
2019-01-31T16:23:14.786Z,66.16
2019-01-31T16:25:25.713Z,66.43
2019-01-31T16:27:36.741Z,66.72
2019-01-31T16:29:47.614Z,67.02
2019-01-31T16:31:58.448Z,67.41
2019-01-31T16:36:26.368Z,67.73
2019-01-31T16:38:37.192Z,67.99
2019-01-31T16:40:48.036Z,68.27
2019-01-31T16:42:59.065Z,68.85
2019-01-31T16:45:51.550Z,68.72
2019-01-31T16:48:44.064Z,68.89
2019-01-31T16:50:54.900Z,69.22
2019-01-31T16:53:47.367Z,69.38
2019-01-31T16:55:58.308Z,69.91
2019-01-31T16:58:09.228Z,70.04
2019-01-31T17:01:01.692Z,69.95
2019-01-31T17:03:13.144Z,70.00
2019-01-31T17:06:07.084Z,69.99
2019-01-31T17:08:18.102Z,69.70
2019-01-31T17:10:29.023Z,69.33
2019-01-31T17:12:39.931Z,69.35
2019-01-31T17:14:50.725Z,69.40
2019-01-31T17:17:01.645Z,69.52
2019-01-31T17:19:12.453Z,69.67
2019-01-31T17:21:23.315Z,69.57
2019-01-31T17:23:34.171Z,69.57
2019-01-31T17:25:45.042Z,69.56
2019-01-31T17:27:55.869Z,69.56
2019-01-31T17:30:27.043Z,69.58
2019-01-31T17:32:37.858Z,69.83
2019-01-31T17:34:48.664Z,69.72
2019-01-31T17:37:19.407Z,69.55
2019-01-31T17:39:30.225Z,69.55
2019-01-31T17:41:41.053Z,69.03
2019-01-31T17:43:51.977Z,68.51
2019-01-31T17:48:21.687Z,68.04
2019-01-31T17:50:32.471Z,67.91
2019-01-31T17:52:43.514Z,68.05
2019-01-31T17:54:56.058Z,68.16
2019-01-31T17:57:07.077Z,68.21
2019-01-31T17:59:17.882Z,68.46
2019-01-31T18:01:28.700Z,68.77
2019-01-31T18:03:39.604Z,68.83
2019-01-31T18:05:50.558Z,68.87
2019-01-31T18:08:01.416Z,68.87
2019-01-31T18:10:53.892Z,68.84
2019-01-31T18:13:05.690Z,68.96
2019-01-31T18:15:17.562Z,69.08
2019-01-31T18:17:28.387Z,69.12
2019-01-31T18:19:39.258Z,69.40
2019-01-31T18:21:50.097Z,69.60
2019-01-31T18:24:01.020Z,69.59
2019-01-31T18:26:11.947Z,69.00
2019-01-31T18:28:22.928Z,68.91
2019-01-31T18:31:15.369Z,69.30
2019-01-31T18:33:27.614Z,69.31
2019-01-31T18:35:39.024Z,69.38
2019-01-31T18:37:49.960Z,68.95
2019-01-31T18:40:00.862Z,68.75
2019-01-31T18:42:11.772Z,68.68
2019-01-31T18:44:22.620Z,68.62
2019-01-31T18:46:33.428Z,68.69
2019-01-31T18:48:44.421Z,68.79
2019-01-31T18:50:55.230Z,68.98
2019-01-31T18:53:06.131Z,69.37
2019-01-31T18:55:17.302Z,69.24
2019-01-31T18:57:28.223Z,69.32
2019-01-31T18:59:39.068Z,68.95
2019-01-31T19:01:49.985Z,68.61
2019-01-31T19:04:00.984Z,68.57
2019-01-31T19:06:11.873Z,68.63
2019-01-31T19:08:22.786Z,68.49
2019-01-31T19:10:42.953Z,68.66
2019-01-31T19:12:46.478Z,69.01
2019-01-31T19:14:57.373Z,69.10
2019-01-31T19:17:08.162Z,69.29
2019-01-31T19:19:19.015Z,69.60
2019-01-31T19:21:29.858Z,69.80
2019-01-31T19:23:40.669Z,69.83
2019-01-31T19:25:51.669Z,69.82
2019-01-31T19:28:44.217Z,69.36
2019-01-31T19:30:55.101Z,69.28
2019-01-31T19:33:47.573Z,69.13
2019-01-31T19:35:58.448Z,69.03
2019-01-31T19:38:09.321Z,68.97
2019-01-31T19:40:40.985Z,68.94
2019-01-31T19:43:33.414Z,68.85
2019-01-31T19:46:25.891Z,68.97
2019-01-31T19:48:36.732Z,69.04
2019-01-31T19:50:47.684Z,68.66
2019-01-31T19:52:58.611Z,68.75
2019-01-31T19:55:09.649Z,68.92
2019-01-31T19:57:20.509Z,68.92
2019-01-31T19:59:31.340Z,69.01
2019-01-31T20:01:42.378Z,69.05
2019-01-31T20:03:53.196Z,68.85
2019-01-31T20:08:26.547Z,68.83
2019-01-31T20:10:37.474Z,68.60
2019-01-31T20:12:48.552Z,68.42
2019-01-31T20:14:59.380Z,68.31
2019-01-31T20:17:10.224Z,68.37
2019-01-31T20:19:28.314Z,68.29
2019-01-31T20:21:39.267Z,68.36
2019-01-31T20:26:07.427Z,68.68
2019-01-31T20:28:18.430Z,68.87
2019-01-31T20:31:10.901Z,68.61
2019-01-31T20:33:21.850Z,68.68
2019-01-31T20:35:32.729Z,68.82
2019-01-31T20:40:00.615Z,68.87
2019-01-31T20:42:11.519Z,68.90
2019-01-31T20:44:22.422Z,68.79
2019-01-31T20:46:53.118Z,68.25
2019-01-31T20:49:04.019Z,68.25
2019-01-31T20:51:14.932Z,67.83
2019-01-31T20:53:25.880Z,68.01
2019-01-31T20:55:36.878Z,67.96
2019-01-31T20:57:47.809Z,67.47
2019-01-31T20:59:58.750Z,67.79
2019-01-31T21:02:09.686Z,67.40
2019-01-31T21:04:20.530Z,67.30
2019-01-31T21:06:41.233Z,67.05
2019-01-31T21:08:44.207Z,66.43
2019-01-31T21:10:55.074Z,66.28
2019-01-31T21:13:47.519Z,66.21
2019-01-31T21:15:58.370Z,66.41
2019-01-31T21:18:09.272Z,66.40
2019-01-31T21:21:01.926Z,66.27
2019-01-31T21:23:12.732Z,66.15
2019-01-31T21:25:23.718Z,65.63
2019-01-31T21:27:34.669Z,65.12
2019-01-31T21:29:45.516Z,64.93
2019-01-31T21:31:56.450Z,65.30
2019-01-31T21:34:07.247Z,65.36
2019-01-31T21:36:18.086Z,65.08
2019-01-31T21:38:29.106Z,64.90
2019-01-31T21:40:40.044Z,65.63
2019-01-31T21:42:50.970Z,65.53
2019-01-31T21:45:02.017Z,65.93
2019-01-31T21:47:12.908Z,65.75
2019-01-31T21:49:23.703Z,65.77
2019-01-31T21:51:34.643Z,65.47
2019-01-31T21:53:45.484Z,65.06
2019-01-31T21:55:56.322Z,65.16
2019-01-31T21:58:07.428Z,64.72
2019-01-31T22:00:59.894Z,64.24
2019-01-31T22:03:10.697Z,64.27
2019-01-31T22:05:21.593Z,64.63
2019-01-31T22:07:32.524Z,64.28
2019-01-31T22:09:43.417Z,64.38
2019-01-31T22:11:54.243Z,64.10
2019-01-31T22:14:05.143Z,64.07
2019-01-31T22:16:15.984Z,63.78
2019-01-31T22:18:26.804Z,64.59
2019-01-31T22:20:37.718Z,64.50
2019-01-31T22:22:48.572Z,64.48
2019-01-31T22:24:59.357Z,63.78
2019-01-31T22:27:10.176Z,63.86
2019-01-31T22:29:21.034Z,62.99
2019-01-31T22:33:49.355Z,62.61
2019-01-31T22:36:00.166Z,62.26
2019-01-31T22:38:11.065Z,61.71
2019-01-31T22:40:22.008Z,61.27
2019-01-31T22:42:32.922Z,59.85
2019-01-31T22:44:43.749Z,59.37
2019-01-31T22:46:54.553Z,59.20
2019-01-31T22:49:05.461Z,59.16
2019-01-31T22:51:16.296Z,58.27
2019-01-31T22:53:27.100Z,58.51
2019-01-31T22:55:37.924Z,59.20
2019-01-31T22:57:48.742Z,58.59
2019-01-31T22:59:59.530Z,57.50
2019-01-31T23:04:42.921Z,57.44
2019-01-31T23:06:53.753Z,56.70
2019-01-31T23:09:46.221Z,56.83
2019-01-31T23:11:57.010Z,56.17
2019-01-31T23:14:07.856Z,55.96
2019-01-31T23:16:18.672Z,55.80
2019-01-31T23:21:02.059Z,56.19
2019-01-31T23:23:12.958Z,56.45
2019-01-31T23:25:23.761Z,56.80
2019-01-31T23:27:34.680Z,57.02
2019-01-31T23:29:45.512Z,56.69
2019-01-31T23:31:56.334Z,57.69
2019-01-31T23:34:07.123Z,57.09
2019-01-31T23:36:17.948Z,57.23
2019-01-31T23:38:28.735Z,57.35
2019-01-31T23:40:39.577Z,57.62
2019-01-31T23:42:50.393Z,57.77
2019-01-31T23:45:01.429Z,58.33
2019-01-31T23:47:12.254Z,58.78
2019-01-31T23:49:23.055Z,59.04
2019-01-31T23:51:33.885Z,59.50
2019-01-31T23:53:44.721Z,60.26
2019-01-31T23:55:55.539Z,60.75
